»·PEaware :: AMX646 KLAX-KSFO

AMX646 :: KLAX-KSFO

FLIGHT INFORMATION

Flight Status: Arrived
Operator:
Aeromexico
More flights by this operator :: More flights under this callsign
Pilot: Alfredo R. (12181)
Aircraft: BOEING 737-800
(B738)
More flights by this aircraft type
Origin: KLAX Los Angeles Intl
United States
Destination: KSFO San Francisco Intl
United States
More flights between these airports :: More routes between these airports
Route: VTU8 RZS STOKD SERFR SERFR2
File this flight plan on PilotEdge
Remarks:
Altitude:
(Current/Filed)
38,000ft
Speed:
(Current/Filed)
470kts
Departed: 05-Oct-17 08:52 PM
Arrived: 05-Oct-17 09:51 PM
Distance/Time
Traveled:
293nm/0:59
Distance/Time
To Go:
Arrived

Flight Plot

Page will automatically refresh every two minutes.

Flight plan parsing failed; only flown route is shown


Map Options




Map Legend


Flown Route
Filed Route
Departure Airport
Arrival Airport
Navaid (VOR, NDB)
Fix

Horizontal Profiles

Position Reports

Time Latitude Longitude Heading Altitude Ground
Speed
05-Oct-17 20:18 33.941038 -118.405043 85 132ft 0kts
05-Oct-17 20:19 33.941038 -118.405043 85 132ft 0kts
05-Oct-17 20:20 33.941038 -118.405043 85 132ft 0kts
05-Oct-17 20:21 33.941038 -118.405043 85 132ft 0kts
05-Oct-17 20:22 33.941038 -118.405043 85 132ft 0kts
05-Oct-17 20:23 33.941038 -118.405043 85 132ft 0kts
05-Oct-17 20:24 33.941038 -118.405043 85 132ft 0kts
05-Oct-17 20:25 33.941038 -118.405043 85 132ft 0kts
05-Oct-17 20:26 33.941038 -118.405043 85 132ft 0kts
05-Oct-17 20:27 33.941038 -118.405043 85 132ft 0kts
05-Oct-17 20:28 33.941038 -118.405043 85 132ft 0kts
05-Oct-17 20:29 33.941038 -118.405043 85 132ft 0kts
05-Oct-17 20:30 33.941038 -118.405043 85 132ft 0kts
05-Oct-17 20:31 33.941038 -118.405043 85 132ft 0kts
05-Oct-17 20:32 33.941028 -118.405080 85 132ft 0kts
05-Oct-17 20:33 33.941004 -118.405442 87 132ft 1kts
05-Oct-17 20:34 33.941097 -118.405628 169 132ft 0kts
05-Oct-17 20:35 33.941097 -118.405628 169 132ft 0kts
05-Oct-17 20:36 33.941097 -118.405628 169 132ft 0kts
05-Oct-17 20:37 33.941097 -118.405628 169 132ft 0kts
05-Oct-17 20:38 33.941097 -118.405628 169 132ft 0kts
05-Oct-17 20:39 33.941097 -118.405628 169 132ft 0kts
05-Oct-17 20:40 33.940997 -118.405611 174 132ft 1kts
05-Oct-17 20:41 33.940048 -118.405481 173 133ft 0kts
05-Oct-17 20:42 33.939999 -118.405474 173 132ft 0kts
05-Oct-17 20:43 33.939981 -118.405471 173 132ft 0kts
05-Oct-17 20:44 33.939895 -118.405458 173 132ft 1kts
05-Oct-17 20:45 33.939021 -118.405327 173 133ft 4kts
05-Oct-17 20:46 33.938328 -118.404292 84 132ft 5kts
05-Oct-17 20:47 33.938616 -118.401556 83 132ft 10kts
05-Oct-17 20:48 33.939031 -118.397447 83 132ft 14kts
05-Oct-17 20:49 33.939573 -118.392154 83 132ft 15kts
05-Oct-17 20:50 33.940001 -118.387937 82 132ft 11kts
05-Oct-17 20:51 33.940434 -118.383736 83 132ft 12kts
05-Oct-17 20:52 33.940696 -118.380712 108 133ft 1kts
05-Oct-17 20:53 33.940650 -118.380555 112 132ft 2kts
05-Oct-17 20:54 33.939790 -118.380659 256 132ft 6kts
05-Oct-17 20:55 33.939590 -118.382617 263 132ft 0kts
05-Oct-17 20:56 33.938886 -118.389395 263 133ft 76kts
05-Oct-17 20:57 33.933491 -118.436387 262 1252ft 168kts
05-Oct-17 20:58 33.929786 -118.493822 265 3295ft 181kts
05-Oct-17 20:59 33.924185 -118.555755 263 4992ft 202kts
05-Oct-17 21:00 33.916686 -118.624444 263 4998ft 212kts
05-Oct-17 21:01 33.908590 -118.700257 262 6122ft 273kts
05-Oct-17 21:02 33.898238 -118.792172 262 9155ft 283kts
05-Oct-17 21:03 33.901139 -118.887854 301 11038ft 323kts
05-Oct-17 21:04 33.971017 -118.954800 317 13793ft 331kts
05-Oct-17 21:05 34.033085 -119.037331 307 16562ft 342kts
05-Oct-17 21:06 34.092571 -119.127307 305 19423ft 353kts
05-Oct-17 21:07 34.158025 -119.214712 313 21912ft 368kts
05-Oct-17 21:08 34.231647 -119.300545 312 24194ft 381kts
05-Oct-17 21:09 34.306505 -119.389966 310 26426ft 388kts
05-Oct-17 21:10 34.382595 -119.481190 310 28463ft 385kts
05-Oct-17 21:11 34.457907 -119.571648 310 29996ft 383kts
05-Oct-17 21:12 34.520572 -119.647037 309 31184ft 379kts
05-Oct-17 21:13 34.606788 -119.750968 307 32676ft 374kts
05-Oct-17 21:14 34.668396 -119.825312 307 33489ft 374kts
05-Oct-17 21:15 34.741405 -119.913538 307 34524ft 370kts
05-Oct-17 21:16 34.813344 -120.000629 307 35438ft 365kts
05-Oct-17 21:17 34.884950 -120.087518 307 36150ft 364kts
05-Oct-17 21:18 34.956044 -120.173968 306 36732ft 363kts
05-Oct-17 21:19 35.026982 -120.260326 306 37244ft 363kts
05-Oct-17 21:20 35.098517 -120.347515 306 37624ft 364kts
05-Oct-17 21:21 35.169897 -120.434579 306 37966ft 365kts
05-Oct-17 21:22 35.242116 -120.522820 307 37947ft 376kts
05-Oct-17 21:23 35.317038 -120.614403 307 37948ft 387kts
05-Oct-17 21:24 35.394112 -120.708775 307 37960ft 400kts
05-Oct-17 21:25 35.474091 -120.806776 308 37977ft 414kts
05-Oct-17 21:26 35.566522 -120.895720 315 37991ft 431kts
05-Oct-17 21:27 35.660372 -120.983423 316 37101ft 431kts
05-Oct-17 21:28 35.753942 -121.070959 316 35587ft 428kts
05-Oct-17 21:29 35.846991 -121.157891 316 33802ft 409kts
05-Oct-17 21:30 35.936300 -121.241409 317 32279ft 414kts
05-Oct-17 21:31 36.025398 -121.324562 318 30650ft 398kts
05-Oct-17 21:32 36.117820 -121.403704 323 29096ft 411kts
05-Oct-17 21:33 36.213536 -121.478337 323 27515ft 412kts
05-Oct-17 21:34 36.305858 -121.550655 323 25766ft 393kts
05-Oct-17 21:35 36.393661 -121.619459 324 23980ft 369kts
05-Oct-17 21:36 36.479241 -121.686565 324 22403ft 365kts
05-Oct-17 21:37 36.563259 -121.752920 324 20812ft 355kts
05-Oct-17 21:38 36.645088 -121.817798 325 19232ft 349kts
05-Oct-17 21:39 36.724974 -121.881036 327 17644ft 341kts
05-Oct-17 21:40 36.815114 -121.914208 344 16041ft 333kts
05-Oct-17 21:41 36.904166 -121.939566 344 14438ft 327kts
05-Oct-17 21:42 36.990166 -121.967673 340 12910ft 320kts
05-Oct-17 21:43 37.073525 -122.000594 341 11407ft 315kts
05-Oct-17 21:44 37.155594 -122.032780 342 9922ft 310kts
05-Oct-17 21:45 37.229000 -122.061519 342 8503ft 261kts
05-Oct-17 21:46 37.294837 -122.087310 342 7330ft 253kts
05-Oct-17 21:47 37.360659 -122.113125 342 6148ft 249kts
05-Oct-17 21:48 37.423900 -122.137990 342 5192ft 234kts
05-Oct-17 21:49 37.483965 -122.159519 347 4275ft 222kts
05-Oct-17 21:50 37.535784 -122.184825 306 3384ft 191kts
05-Oct-17 21:51 37.561444 -122.238850 299 2893ft 192kts
05-Oct-17 21:52 37.587015 -122.299172 299 1282ft 188kts
05-Oct-17 21:53 37.609314 -122.352443 296 177ft 157kts
05-Oct-17 21:54 37.623215 -122.385912 297 20ft 47kts
05-Oct-17 21:55 37.622561 -122.388941 119 21ft 10kts
05-Oct-17 21:56 37.620919 -122.384996 118 20ft 15kts
05-Oct-17 21:57 37.618875 -122.380301 133 21ft 13kts
05-Oct-17 21:58 37.615832 -122.380186 207 21ft 9kts
05-Oct-17 21:59 37.615841 -122.382122 263 20ft 3kts
05-Oct-17 22:00 37.615510 -122.382690 226 20ft 0kts

Navigation Log

Ident Type
Flight plan parsing failed, navigation log unavailable